Time;durP1;ratioP1;P1;durP2;ratioP2;P2;SDS_P1;SDS_P2;PMS_P1;PMS_P2;Temp;Humidity;BMP_temperature;BMP_pressure;BME280_temperature;BME280_humidity;BME280_pressure;Samples;Min_cycle;Max_cycle;Signal;HPM_P1;HPM_P2
2021/09/04 00:00:52;;;;;;;10.07;2.83;;;;;;;;;;5103689;28;20097;-83
2021/09/04 00:03:19;;;;;;;9.27;2.90;;;;;;;;;;5095798;28;20087;-83
2021/09/04 00:05:46;;;;;;;11.00;2.90;;;;;;;;;;5093568;28;20151;-83
2021/09/04 00:08:13;;;;;;;7.53;2.67;;;;;;;;;;5113834;28;20296;-83
2021/09/04 00:10:41;;;;;;;16.70;2.95;;;;;;;;;;5107334;28;20059;-83
2021/09/04 00:13:11;;;;;;;9.95;2.95;;;;;;;;;;5096273;28;20065;-83
2021/09/04 00:15:38;;;;;;;12.80;3.05;;;;;;;;;;5096919;28;20573;-83
2021/09/04 00:18:07;;;;;;;16.08;2.72;;;;;;;;;;5096390;28;20060;-83
2021/09/04 00:20:37;;;;;;;8.75;2.63;;;;;;;;;;5089256;28;20321;-83
2021/09/04 00:23:04;;;;;;;13.88;2.90;;;;;;;;;;5094317;28;20044;-83
2021/09/04 00:25:31;;;;;;;10.27;2.58;;;;;;;;;;5095809;28;20048;-83
2021/09/04 00:27:57;;;;;;;7.45;2.92;;;;;;;;;;5096105;28;20052;-83
2021/09/04 00:30:24;;;;;;;12.00;3.03;;;;;;;;;;5095506;28;20075;-83
2021/09/04 00:32:51;;;;;;;8.57;2.53;;;;;;;;;;5095995;28;20381;-83
2021/09/04 00:35:18;;;;;;;8.95;3.35;;;;;;;;;;5095745;28;20117;-83
2021/09/04 00:37:45;;;;;;;10.13;2.25;;;;;;;;;;5096535;28;20310;-83
2021/09/04 00:40:11;;;;;;;7.05;2.47;;;;;;;;;;5087827;28;20061;-83
2021/09/04 00:42:41;;;;;;;11.35;2.42;;;;;;;;;;5080624;28;20335;-83
2021/09/04 00:45:08;;;;;;;12.25;3.03;;;;;;;;;;5077957;28;20059;-83
2021/09/04 00:47:35;;;;;;;8.43;2.78;;;;;;;;;;5077230;28;20151;-83
2021/09/04 00:50:05;;;;;;;6.97;2.50;;;;;;;;;;5085925;28;20043;-83
2021/09/04 00:52:32;;;;;;;5.82;2.63;;;;;;;;;;5115024;27;20052;-83
2021/09/04 00:54:58;;;;;;;9.93;2.58;;;;;;;;;;5129753;27;20046;-83
2021/09/04 00:57:26;;;;;;;7.45;3.22;;;;;;;;;;5106174;28;20512;-83
2021/09/04 00:59:52;;;;;;;9.27;2.80;;;;;;;;;;5119963;28;20051;-84
2021/09/04 01:02:19;;;;;;;10.07;2.90;;;;;;;;;;5115989;28;20070;-83
2021/09/04 01:04:47;;;;;;;14.40;2.50;;;;;;;;;;5113541;28;20051;-83
2021/09/04 01:07:14;;;;;;;9.30;2.65;;;;;;;;;;5102286;28;20051;-83
2021/09/04 01:09:41;;;;;;;8.07;2.22;;;;;;;;;;5119503;28;20146;-83
2021/09/04 01:12:10;;;;;;;11.68;2.53;;;;;;;;;;5113670;27;20070;-84
2021/09/04 01:14:37;;;;;;;6.50;2.22;;;;;;;;;;5115836;28;20035;-80
2021/09/04 01:17:07;;;;;;;7.28;2.17;;;;;;;;;;5117973;28;20059;-80
2021/09/04 01:19:33;;;;;;;8.13;2.38;;;;;;;;;;5116776;28;20077;-80
2021/09/04 01:22:00;;;;;;;7.78;2.22;;;;;;;;;;5115093;28;20043;-80
2021/09/04 01:24:27;;;;;;;7.13;2.55;;;;;;;;;;5114571;28;20058;-80
2021/09/04 01:26:54;;;;;;;17.52;2.53;;;;;;;;;;5116972;28;20126;-80
2021/09/04 01:29:21;;;;;;;8.63;2.70;;;;;;;;;;5122253;28;20055;-80
2021/09/04 01:31:47;;;;;;;10.55;2.50;;;;;;;;;;5124698;28;20052;-80
2021/09/04 01:34:14;;;;;;;11.48;2.60;;;;;;;;;;5104873;28;20107;-79
2021/09/04 01:36:41;;;;;;;6.72;2.13;;;;;;;;;;5100737;28;20364;-80
2021/09/04 01:39:08;;;;;;;10.15;2.28;;;;;;;;;;5099685;28;20055;-80
2021/09/04 01:41:40;;;;;;;7.80;2.50;;;;;;;;;;5099003;28;20083;-78
2021/09/04 01:44:07;;;;;;;9.30;2.75;;;;;;;;;;5115473;28;20048;-79
2021/09/04 01:46:34;;;;;;;7.38;2.70;;;;;;;;;;5098939;28;20051;-79
2021/09/04 01:49:01;;;;;;;11.32;2.50;;;;;;;;;;5098793;28;20804;-79
2021/09/04 01:51:28;;;;;;;6.43;2.67;;;;;;;;;;5096917;28;20339;-79
2021/09/04 01:53:55;;;;;;;8.13;2.88;;;;;;;;;;5116520;28;20051;-79
2021/09/04 01:56:21;;;;;;;12.75;3.40;;;;;;;;;;5115800;28;20090;-79
2021/09/04 01:58:48;;;;;;;8.80;2.42;;;;;;;;;;5097569;28;20483;-79
2021/09/04 02:01:15;;;;;;;11.23;2.50;;;;;;;;;;5116711;28;20111;-79
2021/09/04 02:03:42;;;;;;;11.18;2.75;;;;;;;;;;5114587;28;20055;-79
2021/09/04 02:06:09;;;;;;;13.35;3.15;;;;;;;;;;5132679;27;20043;-79
2021/09/04 02:08:35;;;;;;;8.10;2.40;;;;;;;;;;5115197;28;20054;-79
2021/09/04 02:11:05;;;;;;;10.73;2.88;;;;;;;;;;5131044;27;20048;-79
2021/09/04 02:13:32;;;;;;;8.45;3.10;;;;;;;;;;5118075;28;20047;-78
2021/09/04 02:15:59;;;;;;;11.20;4.15;;;;;;;;;;5100868;28;20103;-78
2021/09/04 02:18:28;;;;;;;7.95;2.60;;;;;;;;;;5104496;28;20119;-79
2021/09/04 02:20:55;;;;;;;17.88;3.40;;;;;;;;;;5127720;28;20047;-79
2021/09/04 02:23:21;;;;;;;13.38;3.28;;;;;;;;;;5127642;28;20058;-79
2021/09/04 02:25:48;;;;;;;14.70;3.33;;;;;;;;;;5117607;28;20047;-79
2021/09/04 02:28:15;;;;;;;10.35;2.78;;;;;;;;;;5098811;28;20055;-80
2021/09/04 02:30:42;;;;;;;10.35;3.42;;;;;;;;;;5116942;28;20047;-79
2021/09/04 02:33:12;;;;;;;12.80;3.38;;;;;;;;;;5115948;28;20191;-79
2021/09/04 02:35:39;;;;;;;7.65;3.22;;;;;;;;;;5102818;28;20039;-82
2021/09/04 02:38:06;;;;;;;8.20;2.95;;;;;;;;;;5145957;27;20048;-81
2021/09/04 02:40:32;;;;;;;10.88;3.33;;;;;;;;;;5146376;27;20044;-82
2021/09/04 02:42:59;;;;;;;7.97;3.38;;;;;;;;;;5106910;28;20099;-82
2021/09/04 02:45:25;;;;;;;7.30;2.75;;;;;;;;;;5119384;28;20054;-82
2021/09/04 02:47:52;;;;;;;13.32;3.25;;;;;;;;;;5118662;28;20136;-82
2021/09/04 02:50:19;;;;;;;7.97;3.20;;;;;;;;;;5100371;28;20138;-82
2021/09/04 02:52:46;;;;;;;8.80;2.92;;;;;;;;;;5117382;28;20403;-82
2021/09/04 02:55:13;;;;;;;8.90;3.00;;;;;;;;;;5100232;28;20059;-82
2021/09/04 02:57:46;;;;;;;9.95;2.85;;;;;;;;;;5133797;27;20040;-82
2021/09/04 03:00:13;;;;;;;10.32;3.15;;;;;;;;;;5118092;28;20047;-82
2021/09/04 03:02:39;;;;;;;13.55;3.20;;;;;;;;;;5100962;28;20048;-82
2021/09/04 03:05:07;;;;;;;10.65;2.80;;;;;;;;;;5100261;28;20047;-82
2021/09/04 03:07:34;;;;;;;12.32;3.53;;;;;;;;;;5127096;28;20036;-83
2021/09/04 03:10:01;;;;;;;8.75;3.50;;;;;;;;;;5115562;28;20061;-82
2021/09/04 03:12:27;;;;;;;10.30;3.45;;;;;;;;;;5117988;28;20069;-82
2021/09/04 03:14:54;;;;;;;9.25;3.00;;;;;;;;;;5125909;28;20051;-82
2021/09/04 03:17:21;;;;;;;7.10;2.60;;;;;;;;;;5104647;28;20075;-84
2021/09/04 03:19:48;;;;;;;5.93;2.85;;;;;;;;;;5138074;27;20086;-82
2021/09/04 03:22:14;;;;;;;9.23;2.92;;;;;;;;;;5120373;28;20040;-83
2021/09/04 03:24:41;;;;;;;8.88;3.08;;;;;;;;;;5121401;28;20085;-82
2021/09/04 03:27:07;;;;;;;9.00;3.22;;;;;;;;;;5121306;28;20329;-83
2021/09/04 03:29:34;;;;;;;10.10;2.72;;;;;;;;;;5124841;28;20055;-82
2021/09/04 03:32:01;;;;;;;8.82;3.30;;;;;;;;;;5105344;28;20096;-82
2021/09/04 03:34:28;;;;;;;6.50;2.85;;;;;;;;;;5124740;28;20082;-82
2021/09/04 03:36:55;;;;;;;9.63;3.10;;;;;;;;;;5139094;27;20356;-82
2021/09/04 03:39:28;;;;;;;7.85;3.08;;;;;;;;;;5137940;27;20087;-82
2021/09/04 03:41:54;;;;;;;10.73;3.00;;;;;;;;;;5104176;28;20142;-82
2021/09/04 03:44:21;;;;;;;11.15;2.90;;;;;;;;;;5103284;28;20075;-83
2021/09/04 03:46:48;;;;;;;6.82;2.78;;;;;;;;;;5121062;28;20419;-82
2021/09/04 03:49:14;;;;;;;10.15;3.38;;;;;;;;;;5135793;27;20310;-82
2021/09/04 03:51:42;;;;;;;9.05;3.60;;;;;;;;;;5120039;28;20051;-82
2021/09/04 03:54:15;;;;;;;8.43;3.35;;;;;;;;;;5111036;28;20078;-82
2021/09/04 03:56:42;;;;;;;10.65;3.38;;;;;;;;;;5131858;28;20051;-82
2021/09/04 03:59:09;;;;;;;7.43;3.15;;;;;;;;;;5124050;28;20113;-82
2021/09/04 04:01:36;;;;;;;5.90;3.30;;;;;;;;;;5121413;28;20388;-82
2021/09/04 04:04:03;;;;;;;8.55;2.95;;;;;;;;;;5135549;27;20058;-82
2021/09/04 04:06:30;;;;;;;10.93;2.88;;;;;;;;;;5103454;28;20500;-82
2021/09/04 04:08:57;;;;;;;7.70;3.45;;;;;;;;;;5122727;28;20051;-83
2021/09/04 04:11:24;;;;;;;9.40;3.10;;;;;;;;;;5102654;28;20085;-82
2021/09/04 04:13:50;;;;;;;5.60;2.67;;;;;;;;;;5110464;27;20035;-82
2021/09/04 04:16:17;;;;;;;10.10;3.47;;;;;;;;;;5136112;27;20039;-82
2021/09/04 04:18:44;;;;;;;6.00;2.90;;;;;;;;;;5130105;27;20055;-82
2021/09/04 04:21:11;;;;;;;9.65;3.20;;;;;;;;;;5120470;28;20050;-83
2021/09/04 04:23:37;;;;;;;8.73;3.28;;;;;;;;;;5120927;28;20124;-83
2021/09/04 04:26:07;;;;;;;8.25;3.35;;;;;;;;;;5132435;27;20091;-83
2021/09/04 04:28:40;;;;;;;8.80;3.08;;;;;;;;;;5132336;27;20412;-83
2021/09/04 04:31:07;;;;;;;8.43;2.95;;;;;;;;;;5104143;28;20116;-82
2021/09/04 04:33:33;;;;;;;6.32;3.00;;;;;;;;;;5119028;28;20417;-83
2021/09/04 04:36:00;;;;;;;7.25;2.95;;;;;;;;;;5135351;27;20059;-83
2021/09/04 04:38:27;;;;;;;11.77;3.38;;;;;;;;;;5134537;27;20315;-82
2021/09/04 04:40:54;;;;;;;4.85;2.85;;;;;;;;;;5101858;28;20483;-83
2021/09/04 04:43:20;;;;;;;11.52;3.08;;;;;;;;;;5111288;28;20091;-82
2021/09/04 04:45:47;;;;;;;7.78;2.80;;;;;;;;;;5109650;28;20050;-83
2021/09/04 04:48:15;;;;;;;9.50;3.10;;;;;;;;;;5090272;28;20043;-84
2021/09/04 04:50:42;;;;;;;10.52;3.13;;;;;;;;;;5099614;28;20083;-83
2021/09/04 04:53:09;;;;;;;10.75;3.15;;;;;;;;;;5080436;28;20085;-83
2021/09/04 04:55:39;;;;;;;9.95;3.25;;;;;;;;;;5098223;28;20320;-83
2021/09/04 04:58:05;;;;;;;14.30;3.00;;;;;;;;;;5097762;28;20453;-83
2021/09/04 05:00:32;;;;;;;6.28;2.95;;;;;;;;;;5098186;28;20051;-83
2021/09/04 05:03:03;;;;;;;6.85;3.10;;;;;;;;;;5099435;28;20091;-83
2021/09/04 05:05:31;;;;;;;7.85;3.28;;;;;;;;;;5100083;28;20110;-83
2021/09/04 05:07:58;;;;;;;9.82;3.10;;;;;;;;;;5118125;28;20044;-82
2021/09/04 05:10:24;;;;;;;6.93;2.80;;;;;;;;;;5114972;28;20058;-83
2021/09/04 05:12:51;;;;;;;7.32;2.72;;;;;;;;;;5107285;28;20221;-83
2021/09/04 05:15:18;;;;;;;11.07;3.25;;;;;;;;;;5102309;28;20043;-83
2021/09/04 05:17:44;;;;;;;11.98;3.10;;;;;;;;;;5118081;28;20427;-82
2021/09/04 05:20:11;;;;;;;6.68;2.65;;;;;;;;;;5100855;28;20051;-84
2021/09/04 05:22:42;;;;;;;8.57;3.40;;;;;;;;;;5099532;28;20407;-83
2021/09/04 05:25:09;;;;;;;9.10;3.40;;;;;;;;;;5101019;28;20256;-83
2021/09/04 05:27:35;;;;;;;7.57;3.13;;;;;;;;;;5101168;28;20052;-82
2021/09/04 05:30:02;;;;;;;6.65;3.28;;;;;;;;;;5120139;28;20059;-83
2021/09/04 05:32:29;;;;;;;7.05;3.15;;;;;;;;;;5131382;28;20107;-82
2021/09/04 05:34:56;;;;;;;7.43;3.33;;;;;;;;;;5118922;27;20079;-83
2021/09/04 05:37:22;;;;;;;7.03;3.38;;;;;;;;;;5082206;28;20086;-83
2021/09/04 05:39:49;;;;;;;6.82;3.38;;;;;;;;;;5079996;28;20059;-82
2021/09/04 05:42:17;;;;;;;6.47;3.25;;;;;;;;;;5112083;28;20107;-83
2021/09/04 05:44:44;;;;;;;7.97;3.10;;;;;;;;;;5092260;28;20081;-83
2021/09/04 05:47:10;;;;;;;5.32;3.17;;;;;;;;;;5133038;27;20406;-83
2021/09/04 05:49:37;;;;;;;11.63;3.50;;;;;;;;;;5100593;28;20610;-82
2021/09/04 05:52:04;;;;;;;10.07;2.90;;;;;;;;;;5116659;28;20071;-83
2021/09/04 05:54:35;;;;;;;7.20;2.83;;;;;;;;;;5098390;28;20047;-83
2021/09/04 05:57:02;;;;;;;8.23;2.83;;;;;;;;;;5116255;28;20111;-83
2021/09/04 05:59:29;;;;;;;8.80;2.60;;;;;;;;;;5115981;28;20229;-83
2021/09/04 06:01:55;;;;;;;5.07;2.50;;;;;;;;;;5098194;28;20040;-82
2021/09/04 06:04:22;;;;;;;8.70;2.85;;;;;;;;;;5116844;28;20432;-82
2021/09/04 06:06:49;;;;;;;7.68;2.47;;;;;;;;;;5115987;28;20055;-82
2021/09/04 06:09:22;;;;;;;5.45;2.42;;;;;;;;;;5116931;28;20412;-82
2021/09/04 06:11:49;;;;;;;9.45;2.83;;;;;;;;;;5100663;28;20096;-83
2021/09/04 06:14:15;;;;;;;6.53;2.50;;;;;;;;;;5119559;28;20318;-82
2021/09/04 06:16:42;;;;;;;6.53;2.65;;;;;;;;;;5128791;28;20051;-83
2021/09/04 06:19:09;;;;;;;9.82;3.15;;;;;;;;;;5114797;28;20431;-82
2021/09/04 06:21:35;;;;;;;8.98;3.03;;;;;;;;;;5113783;28;20051;-82
2021/09/04 06:24:02;;;;;;;9.95;2.75;;;;;;;;;;5138643;28;20051;-85
2021/09/04 06:26:30;;;;;;;10.85;3.70;;;;;;;;;;5097270;28;20113;-83
2021/09/04 06:28:57;;;;;;;8.35;3.50;;;;;;;;;;5098905;28;20130;-83
2021/09/04 06:31:23;;;;;;;8.55;3.38;;;;;;;;;;5131095;27;20057;-83
2021/09/04 06:33:50;;;;;;;12.07;3.60;;;;;;;;;;5114571;28;20050;-83
2021/09/04 06:36:17;;;;;;;7.38;2.58;;;;;;;;;;5098270;28;20058;-83
2021/09/04 06:38:44;;;;;;;5.30;2.90;;;;;;;;;;5116557;28;20112;-84
2021/09/04 06:41:13;;;;;;;6.40;3.35;;;;;;;;;;5097701;28;20335;-83
2021/09/04 06:43:40;;;;;;;8.05;3.20;;;;;;;;;;5131337;27;20039;-83
2021/09/04 06:46:07;;;;;;;7.43;3.72;;;;;;;;;;5111682;28;20201;-83
2021/09/04 06:48:33;;;;;;;9.00;3.38;;;;;;;;;;5131549;28;20046;-83
2021/09/04 06:51:00;;;;;;;11.07;3.22;;;;;;;;;;5120685;28;20051;-83
2021/09/04 06:53:27;;;;;;;12.75;3.67;;;;;;;;;;5118962;28;20052;-83
2021/09/04 06:55:54;;;;;;;6.75;3.13;;;;;;;;;;5120676;28;20060;-82
2021/09/04 06:58:21;;;;;;;6.30;3.50;;;;;;;;;;5117988;28;20142;-82
2021/09/04 07:00:47;;;;;;;8.63;3.42;;;;;;;;;;5134605;27;20052;-83
2021/09/04 07:03:18;;;;;;;10.30;2.97;;;;;;;;;;5118962;28;20066;-82
2021/09/04 07:05:45;;;;;;;9.35;3.40;;;;;;;;;;5100949;28;20055;-82
2021/09/04 07:08:11;;;;;;;8.40;3.17;;;;;;;;;;5119838;28;20051;-82
2021/09/04 07:10:38;;;;;;;6.90;2.92;;;;;;;;;;5101887;28;20050;-82
2021/09/04 07:13:06;;;;;;;5.55;2.90;;;;;;;;;;5135445;27;20047;-83
2021/09/04 07:15:34;;;;;;;8.30;3.40;;;;;;;;;;5099803;28;20163;-82
2021/09/04 07:18:04;;;;;;;8.68;3.05;;;;;;;;;;5114531;27;20384;-82
2021/09/04 07:20:31;;;;;;;7.90;3.55;;;;;;;;;;5098852;28;20044;-84
2021/09/04 07:22:57;;;;;;;9.00;3.33;;;;;;;;;;5096982;28;20050;-83
2021/09/04 07:25:24;;;;;;;9.00;3.45;;;;;;;;;;5079295;28;20048;-83
2021/09/04 07:27:54;;;;;;;8.40;3.50;;;;;;;;;;5098288;28;20056;-82
2021/09/04 07:30:21;;;;;;;7.80;3.70;;;;;;;;;;5117468;28;20104;-82
2021/09/04 07:32:48;;;;;;;13.88;3.17;;;;;;;;;;5103340;28;20327;-83
2021/09/04 07:35:15;;;;;;;9.63;3.67;;;;;;;;;;5080929;28;20305;-83
2021/09/04 07:37:41;;;;;;;10.00;3.10;;;;;;;;;;5083005;28;20036;-83
2021/09/04 07:40:08;;;;;;;9.60;3.53;;;;;;;;;;5128636;27;20067;-83
2021/09/04 07:42:35;;;;;;;10.07;3.97;;;;;;;;;;5085051;28;20048;-83
2021/09/04 07:45:05;;;;;;;8.60;3.40;;;;;;;;;;5113475;28;20332;-83
2021/09/04 07:47:31;;;;;;;9.13;3.65;;;;;;;;;;5097331;28;20044;-84
2021/09/04 07:49:58;;;;;;;11.43;3.92;;;;;;;;;;5098029;28;20071;-84
2021/09/04 07:52:25;;;;;;;8.85;4.30;;;;;;;;;;5109819;28;20050;-83
2021/09/04 07:54:53;;;;;;;8.32;4.68;;;;;;;;;;5112431;28;20362;-83
2021/09/04 07:57:20;;;;;;;14.98;4.57;;;;;;;;;;5111252;28;20223;-82
2021/09/04 07:59:47;;;;;;;10.02;4.65;;;;;;;;;;5098015;28;20044;-83
2021/09/04 08:02:14;;;;;;;9.30;4.10;;;;;;;;;;5105524;28;20052;-82
2021/09/04 08:04:42;;;;;;;14.98;4.85;;;;;;;;;;5108338;28;20074;-82
2021/09/04 08:07:08;;;;;;;15.30;5.57;;;;;;;;;;5112757;28;20048;-84
2021/09/04 08:09:35;;;;;;;9.43;4.80;;;;;;;;;;5111587;28;20055;-81
2021/09/04 08:12:02;;;;;;;11.88;4.28;;;;;;;;;;5132783;27;20057;-83
2021/09/04 08:14:29;;;;;;;12.25;5.78;;;;;;;;;;5115967;28;20235;-82
2021/09/04 08:16:56;;;;;;;16.60;5.70;;;;;;;;;;5117683;28;20050;-82
2021/09/04 08:19:23;;;;;;;13.82;5.97;;;;;;;;;;5109922;28;20090;-83
2021/09/04 08:21:49;;;;;;;15.85;6.68;;;;;;;;;;5099152;28;20385;-83
2021/09/04 08:24:20;;;;;;;14.10;6.60;;;;;;;;;;5134396;27;20082;-82
2021/09/04 08:26:46;;;;;;;16.83;7.00;;;;;;;;;;5107579;28;20154;-82
2021/09/04 08:29:13;;;;;;;11.43;5.82;;;;;;;;;;5123519;28;20108;-83
2021/09/04 08:31:40;;;;;;;24.60;8.20;;;;;;;;;;5107084;28;20047;-84
2021/09/04 08:34:10;;;;;;;15.35;5.88;;;;;;;;;;5105818;28;20070;-83
2021/09/04 08:36:37;;;;;;;12.07;5.72;;;;;;;;;;5114767;28;20043;-83
2021/09/04 08:39:03;;;;;;;15.15;5.38;;;;;;;;;;5095613;28;20557;-83
2021/09/04 08:41:30;;;;;;;17.05;6.00;;;;;;;;;;5115825;28;20043;-84
2021/09/04 08:43:58;;;;;;;15.52;5.80;;;;;;;;;;5100125;28;20097;-83
2021/09/04 08:46:30;;;;;;;15.43;5.95;;;;;;;;;;5109358;28;20053;-83
2021/09/04 08:49:01;;;;;;;12.98;6.32;;;;;;;;;;5123557;28;20153;-83
2021/09/04 08:51:29;;;;;;;15.73;6.15;;;;;;;;;;5097898;28;20039;-83
2021/09/04 08:53:55;;;;;;;16.65;5.90;;;;;;;;;;5098175;28;20048;-83
2021/09/04 08:56:22;;;;;;;11.80;6.05;;;;;;;;;;5075088;28;20222;-82
2021/09/04 08:58:49;;;;;;;15.45;6.40;;;;;;;;;;5104461;28;20147;-83
2021/09/04 09:01:17;;;;;;;14.10;6.28;;;;;;;;;;5096591;28;20152;-82
2021/09/04 09:03:45;;;;;;;11.88;6.70;;;;;;;;;;5096549;28;20061;-83
2021/09/04 09:06:32;;;;;;;13.35;7.00;;;;;;;;;;5099161;28;20047;-82
2021/09/04 09:09:12;;;;;;;16.00;7.20;;;;;;;;;;5095347;28;20059;-82
2021/09/04 09:11:46;;;;;;;16.40;7.93;;;;;;;;;;5094747;28;20372;-83
2021/09/04 09:14:13;;;;;;;16.38;7.75;;;;;;;;;;5104967;28;20052;-83
2021/09/04 09:16:50;;;;;;;13.10;7.15;;;;;;;;;;5106171;28;20040;-82
2021/09/04 09:19:19;;;;;;;15.27;7.32;;;;;;;;;;5075003;28;20045;-82
2021/09/04 09:21:46;;;;;;;16.98;7.50;;;;;;;;;;5105785;28;20067;-82
2021/09/04 09:24:14;;;;;;;14.68;7.55;;;;;;;;;;5106124;28;20254;-82
2021/09/04 09:26:54;;;;;;;15.80;6.90;;;;;;;;;;5107788;28;20107;-84
2021/09/04 09:29:25;;;;;;;12.95;6.25;;;;;;;;;;5107040;28;20052;-83
2021/09/04 09:32:03;;;;;;;13.82;6.63;;;;;;;;;;5093547;28;20058;-82
2021/09/04 09:34:34;;;;;;;14.02;6.20;;;;;;;;;;5092202;28;20086;-82
2021/09/04 09:37:01;;;;;;;14.13;6.28;;;;;;;;;;5091823;28;20135;-82
2021/09/04 09:39:33;;;;;;;12.35;6.20;;;;;;;;;;5089980;28;20052;-82
2021/09/04 09:42:03;;;;;;;15.27;7.00;;;;;;;;;;5094508;28;20079;-82
2021/09/04 09:44:31;;;;;;;13.70;6.38;;;;;;;;;;5090864;28;20048;-82
2021/09/04 09:46:58;;;;;;;12.55;6.20;;;;;;;;;;5088986;28;20303;-82
2021/09/04 09:49:29;;;;;;;9.65;6.05;;;;;;;;;;5071442;28;20064;-82
2021/09/04 09:52:00;;;;;;;13.52;6.45;;;;;;;;;;5088362;28;20070;-82
2021/09/04 09:54:30;;;;;;;14.75;6.38;;;;;;;;;;5070408;28;20044;-82
2021/09/04 09:57:01;;;;;;;14.63;7.15;;;;;;;;;;5103192;28;20079;-82
2021/09/04 09:59:44;;;;;;;12.90;7.05;;;;;;;;;;5115863;28;20043;-83
2021/09/04 10:02:12;;;;;;;12.90;6.22;;;;;;;;;;5093257;28;20040;-82
2021/09/04 10:04:40;;;;;;;11.13;5.45;;;;;;;;;;5079399;28;20051;-82
2021/09/04 10:07:08;;;;;;;9.02;5.20;;;;;;;;;;5093776;28;20058;-82
2021/09/04 10:09:39;;;;;;;11.40;5.60;;;;;;;;;;5092658;28;20134;-82
2021/09/04 10:12:07;;;;;;;11.80;6.00;;;;;;;;;;5109195;28;20047;-82
2021/09/04 10:14:34;;;;;;;16.42;7.47;;;;;;;;;;5093905;28;20047;-83
2021/09/04 10:17:06;;;;;;;13.68;5.90;;;;;;;;;;5096509;28;20468;-82
2021/09/04 10:19:34;;;;;;;15.73;5.30;;;;;;;;;;5098295;28;20238;-82
2021/09/04 10:22:05;;;;;;;15.02;5.38;;;;;;;;;;5093691;28;20132;-82
2021/09/04 10:24:44;;;;;;;16.63;5.75;;;;;;;;;;5097451;28;20055;-83
2021/09/04 10:27:11;;;;;;;12.27;5.13;;;;;;;;;;5114975;28;20048;-81
2021/09/04 10:29:42;;;;;;;13.40;5.47;;;;;;;;;;5097682;28;20376;-82
2021/09/04 10:32:14;;;;;;;10.57;5.38;;;;;;;;;;5106878;28;20052;-83
2021/09/04 10:34:42;;;;;;;12.13;5.80;;;;;;;;;;5111873;28;20050;-83
2021/09/04 10:37:12;;;;;;;10.52;5.25;;;;;;;;;;5126482;27;20055;-82
2021/09/04 10:39:49;;;;;;;17.20;5.55;;;;;;;;;;5113311;28;20269;-83
2021/09/04 10:42:44;;;;;;;13.05;5.15;;;;;;;;;;5125284;28;20072;-83
2021/09/04 10:45:14;;;;;;;13.60;4.93;;;;;;;;;;5099489;28;20044;-81
2021/09/04 10:47:43;;;;;;;9.55;5.18;;;;;;;;;;5109172;28;20032;-82
2021/09/04 10:50:16;;;;;;;15.07;5.95;;;;;;;;;;5113539;28;20050;-84
2021/09/04 10:55:49;;;;;;;9.90;5.28;;;;;;;;;;5102960;28;20241;-83
2021/09/04 10:58:18;;;;;;;11.98;4.82;;;;;;;;;;5111160;28;20031;-83
2021/09/04 11:00:49;;;;;;;10.77;5.20;;;;;;;;;;5109179;28;20074;-82
2021/09/04 11:03:17;;;;;;;10.95;4.93;;;;;;;;;;5079106;28;20054;-83
2021/09/04 11:05:51;;;;;;;13.02;4.80;;;;;;;;;;5096850;28;20241;-83
2021/09/04 11:08:24;;;;;;;8.43;4.85;;;;;;;;;;5095575;28;20044;-83
2021/09/04 11:11:06;;;;;;;11.20;4.65;;;;;;;;;;5094913;28;20044;-84
2021/09/04 11:13:34;;;;;;;12.07;5.50;;;;;;;;;;5091308;28;20134;-83
2021/09/04 11:16:29;;;;;;;10.55;5.25;;;;;;;;;;5096542;28;20215;-83
2021/09/04 11:19:03;;;;;;;10.55;4.68;;;;;;;;;;5113538;28;20047;-83
2021/09/04 11:21:31;;;;;;;12.57;5.28;;;;;;;;;;5113774;28;20044;-82
2021/09/04 11:24:02;;;;;;;11.60;5.93;;;;;;;;;;5096691;28;20120;-83
2021/09/04 11:26:29;;;;;;;10.00;5.10;;;;;;;;;;5098145;28;20040;-84
2021/09/04 11:28:57;;;;;;;14.43;4.78;;;;;;;;;;5096879;28;20511;-83
2021/09/04 11:31:24;;;;;;;13.07;5.47;;;;;;;;;;5115077;28;20062;-83
2021/09/04 11:34:03;;;;;;;16.85;5.25;;;;;;;;;;5096687;28;20043;-82
2021/09/04 11:36:31;;;;;;;12.15;5.45;;;;;;;;;;5114718;28;20121;-83
2021/09/04 11:38:59;;;;;;;11.70;5.28;;;;;;;;;;5098253;28;20074;-83
2021/09/04 11:41:32;;;;;;;8.98;5.43;;;;;;;;;;5116727;28;20040;-83
2021/09/04 11:43:58;;;;;;;10.45;5.40;;;;;;;;;;5086703;28;20051;-82
2021/09/04 11:46:26;;;;;;;13.45;6.03;;;;;;;;;;5080380;28;20055;-83
2021/09/04 11:48:56;;;;;;;10.25;4.72;;;;;;;;;;5094423;28;20138;-83
2021/09/04 11:51:23;;;;;;;9.52;5.40;;;;;;;;;;5076143;28;20051;-83
2021/09/04 11:54:05;;;;;;;13.18;5.57;;;;;;;;;;5076484;28;20191;-83
2021/09/04 11:56:32;;;;;;;13.38;5.40;;;;;;;;;;5074659;28;20056;-83
2021/09/04 11:59:25;;;;;;;10.70;4.78;;;;;;;;;;5091439;28;20096;-83
2021/09/04 12:01:59;;;;;;;13.68;5.15;;;;;;;;;;5086422;28;20086;-83
2021/09/04 12:04:26;;;;;;;12.43;5.00;;;;;;;;;;5090798;28;20369;-83
2021/09/04 12:06:59;;;;;;;10.65;5.40;;;;;;;;;;5101807;28;20048;-83
2021/09/04 12:09:25;;;;;;;11.32;5.15;;;;;;;;;;5111230;28;20044;-83
2021/09/04 12:11:52;;;;;;;17.25;5.68;;;;;;;;;;5094644;28;20040;-82
2021/09/04 12:14:19;;;;;;;11.65;4.90;;;;;;;;;;5090711;28;20067;-82
2021/09/04 12:16:46;;;;;;;11.68;5.10;;;;;;;;;;5087768;28;20101;-82
2021/09/04 12:19:17;;;;;;;10.50;4.80;;;;;;;;;;5093002;28;20117;-83
2021/09/04 12:21:52;;;;;;;11.82;4.85;;;;;;;;;;5094030;28;20307;-84
2021/09/04 12:24:31;;;;;;;11.30;4.68;;;;;;;;;;5085753;28;20051;-83
2021/09/04 12:26:59;;;;;;;14.00;5.15;;;;;;;;;;5105241;28;20259;-83
2021/09/04 12:29:30;;;;;;;13.75;5.13;;;;;;;;;;5107301;28;20076;-83
2021/09/04 12:32:08;;;;;;;11.77;5.20;;;;;;;;;;5085755;28;20171;-83
2021/09/04 12:34:35;;;;;;;10.05;4.63;;;;;;;;;;5115834;28;20043;-83
2021/09/04 12:37:02;;;;;;;7.10;4.40;;;;;;;;;;5095086;28;20060;-84
2021/09/04 12:39:29;;;;;;;12.27;4.88;;;;;;;;;;5092062;28;20417;-83
2021/09/04 12:42:03;;;;;;;16.27;4.88;;;;;;;;;;5090747;28;20052;-83
2021/09/04 12:44:45;;;;;;;11.73;5.18;;;;;;;;;;5088543;28;20352;-83
2021/09/04 12:47:14;;;;;;;10.77;4.70;;;;;;;;;;5090225;28;20061;-83
2021/09/04 12:49:47;;;;;;;9.77;4.90;;;;;;;;;;5090861;28;20768;-83
2021/09/04 12:52:25;;;;;;;9.18;4.78;;;;;;;;;;5087451;28;20067;-83
2021/09/04 12:54:51;;;;;;;14.55;5.07;;;;;;;;;;5088433;28;20036;-83
2021/09/04 12:57:19;;;;;;;8.93;4.70;;;;;;;;;;5095189;28;20306;-83
2021/09/04 12:59:57;;;;;;;11.20;4.72;;;;;;;;;;5111426;28;20061;-83
2021/09/04 13:02:30;;;;;;;11.23;5.22;;;;;;;;;;5106199;28;20067;-82
2021/09/04 13:05:01;;;;;;;13.98;4.97;;;;;;;;;;5088400;28;20052;-82
2021/09/04 13:07:48;;;;;;;10.07;4.30;;;;;;;;;;5089100;28;20282;-81
2021/09/04 13:10:18;;;;;;;10.17;4.93;;;;;;;;;;5100809;28;20044;-83
2021/09/04 13:12:46;;;;;;;9.35;4.82;;;;;;;;;;5074242;28;20052;-82
2021/09/04 13:15:13;;;;;;;10.38;5.57;;;;;;;;;;5092405;27;20063;-82
2021/09/04 13:17:40;;;;;;;12.93;4.93;;;;;;;;;;5101472;28;20044;-82
2021/09/04 13:20:08;;;;;;;11.85;4.82;;;;;;;;;;5076805;28;20097;-82
2021/09/04 13:22:36;;;;;;;9.38;4.75;;;;;;;;;;5103072;28;20039;-83
2021/09/04 13:25:04;;;;;;;11.38;5.10;;;;;;;;;;5109705;28;20054;-82
2021/09/04 13:27:31;;;;;;;15.07;5.07;;;;;;;;;;5094449;28;20365;-82
2021/09/04 13:29:58;;;;;;;10.88;4.88;;;;;;;;;;5111302;28;20058;-82
2021/09/04 13:32:27;;;;;;;11.95;4.95;;;;;;;;;;5146247;27;20048;-83
2021/09/04 13:34:54;;;;;;;10.38;4.82;;;;;;;;;;5112768;28;20273;-82
2021/09/04 13:37:21;;;;;;;14.35;5.65;;;;;;;;;;5115698;28;20097;-81
2021/09/04 13:39:48;;;;;;;9.60;5.60;;;;;;;;;;5104217;28;20119;-82
2021/09/04 13:42:14;;;;;;;14.57;4.93;;;;;;;;;;5125381;28;20031;-84
2021/09/04 13:44:41;;;;;;;12.63;5.38;;;;;;;;;;5110230;28;20117;-82
2021/09/04 13:47:08;;;;;;;9.90;4.68;;;;;;;;;;5108262;28;20048;-83
2021/09/04 13:49:35;;;;;;;9.55;4.60;;;;;;;;;;5105132;28;20500;-83
2021/09/04 13:52:02;;;;;;;11.35;4.60;;;;;;;;;;5095173;28;20047;-83
2021/09/04 13:54:29;;;;;;;9.65;4.88;;;;;;;;;;5098975;27;20103;-82
2021/09/04 13:56:56;;;;;;;11.32;5.03;;;;;;;;;;5103833;28;20079;-82
2021/09/04 13:59:22;;;;;;;9.52;5.00;;;;;;;;;;5080113;28;20044;-82
2021/09/04 14:01:49;;;;;;;10.18;5.53;;;;;;;;;;5102943;28;20040;-82
2021/09/04 14:04:16;;;;;;;11.43;4.90;;;;;;;;;;5138080;27;20051;-82
2021/09/04 14:06:43;;;;;;;14.35;5.80;;;;;;;;;;5087266;28;20049;-81
2021/09/04 14:09:09;;;;;;;10.00;4.85;;;;;;;;;;5069833;28;20109;-82
2021/09/04 14:11:36;;;;;;;8.57;4.60;;;;;;;;;;5070446;28;20084;-82
2021/09/04 14:14:03;;;;;;;12.63;4.78;;;;;;;;;;5077847;28;20062;-82
2021/09/04 14:16:31;;;;;;;11.60;5.10;;;;;;;;;;5109899;28;20139;-82
2021/09/04 14:19:01;;;;;;;7.43;4.70;;;;;;;;;;5110304;28;20355;-82
2021/09/04 14:21:28;;;;;;;7.60;4.07;;;;;;;;;;5109850;28;20239;-83
2021/09/04 14:23:55;;;;;;;9.27;4.90;;;;;;;;;;5097067;28;20052;-83
2021/09/04 14:26:21;;;;;;;13.55;4.63;;;;;;;;;;5084470;28;20063;-83
2021/09/04 14:28:49;;;;;;;8.68;4.68;;;;;;;;;;5068900;28;20232;-84
2021/09/04 14:31:16;;;;;;;12.50;4.57;;;;;;;;;;5069937;28;20336;-83
2021/09/04 14:33:43;;;;;;;18.40;5.40;;;;;;;;;;5072230;28;20084;-82
2021/09/04 14:36:10;;;;;;;10.52;4.50;;;;;;;;;;5081556;28;20071;-81
2021/09/04 14:38:36;;;;;;;9.60;4.93;;;;;;;;;;5072312;28;20048;-82
2021/09/04 14:41:03;;;;;;;10.80;4.60;;;;;;;;;;5067481;28;20052;-81
2021/09/04 14:43:30;;;;;;;13.90;4.40;;;;;;;;;;5067633;28;20056;-81
2021/09/04 14:45:57;;;;;;;14.18;4.88;;;;;;;;;;5078708;28;20056;-82